Aviation Digital Data Service (ADDS)

Output produced by METARs form (2045 UTC 21 September 2021)
found at http://www.aviationweather.gov/metar/data/
 
KJFK 211949Z 2120/2224 12010KT P6SM SCT025 BKN035 
     FM220300 12007KT P6SM FEW025 SCT040 
     FM220800 13008KT P6SM SCT008 BKN015 
     TEMPO 2211/2213 BKN008 BKN015 
     FM221400 14012G19KT P6SM BKN020 
     FM221600 15016G23KT P6SM SCT025 SCT050 BKN250